sensor_id;sensor_type;location;lat;lon;timestamp;temperature;humidity
2611;DHT22;5612;51.134;17.058;2022-10-16T00:01:44;13.50;99.90
2611;DHT22;5612;51.134;17.058;2022-10-16T00:04:13;13.60;99.90
2611;DHT22;5612;51.134;17.058;2022-10-16T00:06:43;13.60;99.90
2611;DHT22;5612;51.134;17.058;2022-10-16T00:09:12;13.70;99.90
2611;DHT22;5612;51.134;17.058;2022-10-16T00:11:41;13.60;99.90
2611;DHT22;5612;51.134;17.058;2022-10-16T00:14:12;13.60;99.90
2611;DHT22;5612;51.134;17.058;2022-10-16T00:16:41;13.50;99.90
2611;DHT22;5612;51.134;17.058;2022-10-16T00:19:10;13.50;99.90
2611;DHT22;5612;51.134;17.058;2022-10-16T00:21:39;13.50;99.90
2611;DHT22;5612;51.134;17.058;2022-10-16T00:24:10;13.50;99.90
2611;DHT22;5612;51.134;17.058;2022-10-16T00:26:39;13.50;99.90
2611;DHT22;5612;51.134;17.058;2022-10-16T00:29:09;13.40;99.90
2611;DHT22;5612;51.134;17.058;2022-10-16T00:31:38;13.40;99.90
2611;DHT22;5612;51.134;17.058;2022-10-16T00:34:06;13.60;99.90
2611;DHT22;5612;51.134;17.058;2022-10-16T00:36:35;13.60;99.90
2611;DHT22;5612;51.134;17.058;2022-10-16T00:39:04;13.60;99.90
2611;DHT22;5612;51.134;17.058;2022-10-16T00:41:34;13.60;99.90
2611;DHT22;5612;51.134;17.058;2022-10-16T00:44:40;13.60;99.90
2611;DHT22;5612;51.134;17.058;2022-10-16T00:46:52;13.70;99.90
2611;DHT22;5612;51.134;17.058;2022-10-16T00:49:21;13.70;99.90
2611;DHT22;5612;51.134;17.058;2022-10-16T00:51:53;13.70;99.90
2611;DHT22;5612;51.134;17.058;2022-10-16T00:54:25;13.80;99.90
2611;DHT22;5612;51.134;17.058;2022-10-16T00:56:59;13.80;99.90
2611;DHT22;5612;51.134;17.058;2022-10-16T00:59:30;13.80;99.90
2611;DHT22;5612;51.134;17.058;2022-10-16T01:02:00;13.80;99.90
2611;DHT22;5612;51.134;17.058;2022-10-16T01:04:33;13.80;99.90
2611;DHT22;5612;51.134;17.058;2022-10-16T01:07:09;13.80;99.90
2611;DHT22;5612;51.134;17.058;2022-10-16T01:09:47;13.90;99.90
2611;DHT22;5612;51.134;17.058;2022-10-16T01:12:30;13.80;99.90
2611;DHT22;5612;51.134;17.058;2022-10-16T01:15:10;13.70;99.90
2611;DHT22;5612;51.134;17.058;2022-10-16T01:17:45;13.80;99.90
2611;DHT22;5612;51.134;17.058;2022-10-16T01:20:21;13.70;99.90
2611;DHT22;5612;51.134;17.058;2022-10-16T01:23:06;13.80;99.90
2611;DHT22;5612;51.134;17.058;2022-10-16T01:25:58;13.80;99.90
2611;DHT22;5612;51.134;17.058;2022-10-16T01:28:34;13.70;99.90
2611;DHT22;5612;51.134;17.058;2022-10-16T01:31:05;13.60;99.90
2611;DHT22;5612;51.134;17.058;2022-10-16T01:33:38;13.60;99.90
2611;DHT22;5612;51.134;17.058;2022-10-16T01:36:11;13.70;99.90
2611;DHT22;5612;51.134;17.058;2022-10-16T01:38:44;13.60;99.90
2611;DHT22;5612;51.134;17.058;2022-10-16T01:41:18;13.50;99.90
2611;DHT22;5612;51.134;17.058;2022-10-16T01:43:56;13.50;99.90
2611;DHT22;5612;51.134;17.058;2022-10-16T01:46:26;13.60;99.90
2611;DHT22;5612;51.134;17.058;2022-10-16T01:48:56;13.60;99.90
2611;DHT22;5612;51.134;17.058;2022-10-16T01:51:26;13.70;99.90
2611;DHT22;5612;51.134;17.058;2022-10-16T01:53:58;13.80;99.90
2611;DHT22;5612;51.134;17.058;2022-10-16T01:56:29;13.70;99.90
2611;DHT22;5612;51.134;17.058;2022-10-16T01:59:02;13.70;99.90
2611;DHT22;5612;51.134;17.058;2022-10-16T02:01:35;13.70;99.90
2611;DHT22;5612;51.134;17.058;2022-10-16T02:04:10;13.80;99.90
2611;DHT22;5612;51.134;17.058;2022-10-16T02:06:40;13.80;99.90
2611;DHT22;5612;51.134;17.058;2022-10-16T02:09:09;13.80;99.90
2611;DHT22;5612;51.134;17.058;2022-10-16T02:11:38;13.70;99.90
2611;DHT22;5612;51.134;17.058;2022-10-16T02:14:08;13.80;99.90
2611;DHT22;5612;51.134;17.058;2022-10-16T02:16:39;13.80;99.90
2611;DHT22;5612;51.134;17.058;2022-10-16T02:19:08;13.80;99.90
2611;DHT22;5612;51.134;17.058;2022-10-16T02:21:41;13.80;99.90
2611;DHT22;5612;51.134;17.058;2022-10-16T02:24:19;14.00;99.90
2611;DHT22;5612;51.134;17.058;2022-10-16T02:26:51;14.00;98.60
2611;DHT22;5612;51.134;17.058;2022-10-16T02:29:24;13.90;99.90
2611;DHT22;5612;51.134;17.058;2022-10-16T02:31:56;13.90;99.90
2611;DHT22;5612;51.134;17.058;2022-10-16T02:34:45;13.90;98.60
2611;DHT22;5612;51.134;17.058;2022-10-16T02:37:15;14.00;99.90
2611;DHT22;5612;51.134;17.058;2022-10-16T02:39:44;14.10;92.80
2611;DHT22;5612;51.134;17.058;2022-10-16T02:42:14;14.10;78.10
2611;DHT22;5612;51.134;17.058;2022-10-16T02:44:44;13.80;96.60
2611;DHT22;5612;51.134;17.058;2022-10-16T02:47:13;13.90;99.90
2611;DHT22;5612;51.134;17.058;2022-10-16T02:49:41;13.90;97.70
2611;DHT22;5612;51.134;17.058;2022-10-16T02:52:10;14.00;92.90
2611;DHT22;5612;51.134;17.058;2022-10-16T02:54:38;13.90;92.50
2611;DHT22;5612;51.134;17.058;2022-10-16T02:57:07;14.00;82.30
2611;DHT22;5612;51.134;17.058;2022-10-16T02:59:36;13.90;87.20
2611;DHT22;5612;51.134;17.058;2022-10-16T03:02:06;13.80;93.60
2611;DHT22;5612;51.134;17.058;2022-10-16T03:04:35;13.70;96.30
2611;DHT22;5612;51.134;17.058;2022-10-16T03:07:04;13.60;99.90
2611;DHT22;5612;51.134;17.058;2022-10-16T03:09:32;13.60;99.90
2611;DHT22;5612;51.134;17.058;2022-10-16T03:12:01;13.60;99.90
2611;DHT22;5612;51.134;17.058;2022-10-16T03:14:30;13.50;99.90
2611;DHT22;5612;51.134;17.058;2022-10-16T03:16:59;13.60;99.90
2611;DHT22;5612;51.134;17.058;2022-10-16T03:19:29;13.70;99.90
2611;DHT22;5612;51.134;17.058;2022-10-16T03:21:57;13.60;99.90
2611;DHT22;5612;51.134;17.058;2022-10-16T03:24:26;13.70;99.90
2611;DHT22;5612;51.134;17.058;2022-10-16T03:26:55;13.60;99.90
2611;DHT22;5612;51.134;17.058;2022-10-16T03:29:23;13.70;99.90
2611;DHT22;5612;51.134;17.058;2022-10-16T03:31:53;13.80;99.90
2611;DHT22;5612;51.134;17.058;2022-10-16T03:34:21;13.80;99.90
2611;DHT22;5612;51.134;17.058;2022-10-16T03:36:52;13.90;99.90
2611;DHT22;5612;51.134;17.058;2022-10-16T03:39:20;13.90;99.90
2611;DHT22;5612;51.134;17.058;2022-10-16T03:41:49;13.90;99.90
2611;DHT22;5612;51.134;17.058;2022-10-16T03:44:17;13.90;99.90
2611;DHT22;5612;51.134;17.058;2022-10-16T03:46:46;13.80;99.90
2611;DHT22;5612;51.134;17.058;2022-10-16T03:49:15;13.80;99.90
2611;DHT22;5612;51.134;17.058;2022-10-16T03:51:43;13.80;99.90
2611;DHT22;5612;51.134;17.058;2022-10-16T03:54:14;13.80;99.90
2611;DHT22;5612;51.134;17.058;2022-10-16T03:56:42;13.80;99.90
2611;DHT22;5612;51.134;17.058;2022-10-16T03:59:11;13.70;99.90
2611;DHT22;5612;51.134;17.058;2022-10-16T04:01:40;13.70;99.90
2611;DHT22;5612;51.134;17.058;2022-10-16T04:04:09;13.70;99.90
2611;DHT22;5612;51.134;17.058;2022-10-16T04:06:38;13.70;99.90
2611;DHT22;5612;51.134;17.058;2022-10-16T04:09:06;13.80;99.90
2611;DHT22;5612;51.134;17.058;2022-10-16T04:11:36;13.80;99.90
2611;DHT22;5612;51.134;17.058;2022-10-16T04:14:06;13.70;99.90
2611;DHT22;5612;51.134;17.058;2022-10-16T04:16:34;13.70;99.90
2611;DHT22;5612;51.134;17.058;2022-10-16T04:19:03;13.70;99.90
2611;DHT22;5612;51.134;17.058;2022-10-16T04:21:32;13.70;99.90
2611;DHT22;5612;51.134;17.058;2022-10-16T04:24:00;13.70;99.90
2611;DHT22;5612;51.134;17.058;2022-10-16T04:26:29;13.70;99.90
2611;DHT22;5612;51.134;17.058;2022-10-16T04:28:59;13.80;99.90
2611;DHT22;5612;51.134;17.058;2022-10-16T04:31:28;13.70;99.90
2611;DHT22;5612;51.134;17.058;2022-10-16T04:33:57;13.70;99.90
2611;DHT22;5612;51.134;17.058;2022-10-16T04:36:25;13.70;99.90
2611;DHT22;5612;51.134;17.058;2022-10-16T04:38:55;13.60;99.90
2611;DHT22;5612;51.134;17.058;2022-10-16T04:41:24;13.60;99.90
2611;DHT22;5612;51.134;17.058;2022-10-16T04:43:52;13.50;99.90
2611;DHT22;5612;51.134;17.058;2022-10-16T04:46:22;13.40;99.90
2611;DHT22;5612;51.134;17.058;2022-10-16T04:48:51;13.50;99.90
2611;DHT22;5612;51.134;17.058;2022-10-16T04:51:21;13.60;99.90
2611;DHT22;5612;51.134;17.058;2022-10-16T04:53:49;13.60;99.90
2611;DHT22;5612;51.134;17.058;2022-10-16T04:56:18;13.50;99.90
2611;DHT22;5612;51.134;17.058;2022-10-16T04:58:47;13.50;99.90
2611;DHT22;5612;51.134;17.058;2022-10-16T05:01:16;13.50;99.90
2611;DHT22;5612;51.134;17.058;2022-10-16T05:03:46;13.50;99.90
2611;DHT22;5612;51.134;17.058;2022-10-16T05:06:15;13.50;99.90
2611;DHT22;5612;51.134;17.058;2022-10-16T05:08:43;13.50;99.90
2611;DHT22;5612;51.134;17.058;2022-10-16T05:11:12;13.50;99.90
2611;DHT22;5612;51.134;17.058;2022-10-16T05:13:41;13.50;99.90
2611;DHT22;5612;51.134;17.058;2022-10-16T05:16:09;13.50;99.90
2611;DHT22;5612;51.134;17.058;2022-10-16T05:18:38;13.50;99.90
2611;DHT22;5612;51.134;17.058;2022-10-16T05:21:08;13.50;99.90
2611;DHT22;5612;51.134;17.058;2022-10-16T05:23:37;13.50;99.90
2611;DHT22;5612;51.134;17.058;2022-10-16T05:26:05;13.50;99.90
2611;DHT22;5612;51.134;17.058;2022-10-16T05:28:34;13.50;99.90
2611;DHT22;5612;51.134;17.058;2022-10-16T05:31:04;13.40;99.90
2611;DHT22;5612;51.134;17.058;2022-10-16T05:33:34;13.50;99.90
2611;DHT22;5612;51.134;17.058;2022-10-16T05:36:04;13.50;99.90
2611;DHT22;5612;51.134;17.058;2022-10-16T05:38:35;13.40;99.90
2611;DHT22;5612;51.134;17.058;2022-10-16T05:41:04;13.40;99.90
2611;DHT22;5612;51.134;17.058;2022-10-16T05:43:33;13.50;99.90
2611;DHT22;5612;51.134;17.058;2022-10-16T05:46:04;13.50;99.90
2611;DHT22;5612;51.134;17.058;2022-10-16T05:48:33;13.50;99.90
2611;DHT22;5612;51.134;17.058;2022-10-16T05:51:03;13.60;99.90
2611;DHT22;5612;51.134;17.058;2022-10-16T05:53:34;13.60;99.90
2611;DHT22;5612;51.134;17.058;2022-10-16T05:56:04;13.60;99.90
2611;DHT22;5612;51.134;17.058;2022-10-16T05:58:35;13.70;99.90
2611;DHT22;5612;51.134;17.058;2022-10-16T06:01:05;13.80;99.90
2611;DHT22;5612;51.134;17.058;2022-10-16T06:03:35;13.80;99.90
2611;DHT22;5612;51.134;17.058;2022-10-16T06:06:11;13.90;99.90
2611;DHT22;5612;51.134;17.058;2022-10-16T06:08:42;14.00;99.90
2611;DHT22;5612;51.134;17.058;2022-10-16T06:11:15;14.00;99.90
2611;DHT22;5612;51.134;17.058;2022-10-16T06:13:44;14.10;99.90
2611;DHT22;5612;51.134;17.058;2022-10-16T06:16:14;14.20;99.90
2611;DHT22;5612;51.134;17.058;2022-10-16T06:18:43;14.30;99.90
2611;DHT22;5612;51.134;17.058;2022-10-16T06:21:14;14.50;99.90
2611;DHT22;5612;51.134;17.058;2022-10-16T06:23:46;14.50;99.90
2611;DHT22;5612;51.134;17.058;2022-10-16T06:26:16;14.50;99.90
2611;DHT22;5612;51.134;17.058;2022-10-16T06:28:45;14.60;99.90
2611;DHT22;5612;51.134;17.058;2022-10-16T06:31:15;14.70;99.90
2611;DHT22;5612;51.134;17.058;2022-10-16T06:33:44;14.80;99.90
2611;DHT22;5612;51.134;17.058;2022-10-16T06:36:16;14.90;99.90
2611;DHT22;5612;51.134;17.058;2022-10-16T06:38:47;15.00;99.90
2611;DHT22;5612;51.134;17.058;2022-10-16T06:41:18;15.10;93.90
2611;DHT22;5612;51.134;17.058;2022-10-16T06:43:47;15.20;70.20
2611;DHT22;5612;51.134;17.058;2022-10-16T06:46:19;15.30;71.90
2611;DHT22;5612;51.134;17.058;2022-10-16T06:48:48;15.40;41.50
2611;DHT22;5612;51.134;17.058;2022-10-16T06:51:18;15.40;29.00
2611;DHT22;5612;51.134;17.058;2022-10-16T06:53:49;15.60;19.40
2611;DHT22;5612;51.134;17.058;2022-10-16T06:56:35;15.60;1.00
2611;DHT22;5612;51.134;17.058;2022-10-16T06:59:05;15.60;5.30
2611;DHT22;5612;51.134;17.058;2022-10-16T07:01:33;15.60;1.00
2611;DHT22;5612;51.134;17.058;2022-10-16T07:04:02;15.60;1.00
2611;DHT22;5612;51.134;17.058;2022-10-16T07:06:32;15.70;1.00
2611;DHT22;5612;51.134;17.058;2022-10-16T07:09:05;15.70;1.00
2611;DHT22;5612;51.134;17.058;2022-10-16T07:11:35;15.80;1.00
2611;DHT22;5612;51.134;17.058;2022-10-16T07:14:05;15.80;1.00
2611;DHT22;5612;51.134;17.058;2022-10-16T07:16:40;15.90;1.00
2611;DHT22;5612;51.134;17.058;2022-10-16T07:19:09;15.90;1.00
2611;DHT22;5612;51.134;17.058;2022-10-16T07:21:39;15.90;1.00
2611;DHT22;5612;51.134;17.058;2022-10-16T07:24:12;15.90;1.00
2611;DHT22;5612;51.134;17.058;2022-10-16T07:26:42;15.90;1.00
2611;DHT22;5612;51.134;17.058;2022-10-16T07:29:13;16.10;1.00
2611;DHT22;5612;51.134;17.058;2022-10-16T07:31:43;16.10;1.00
2611;DHT22;5612;51.134;17.058;2022-10-16T07:34:12;16.20;1.00
2611;DHT22;5612;51.134;17.058;2022-10-16T07:36:42;16.30;1.00
2611;DHT22;5612;51.134;17.058;2022-10-16T07:39:12;16.50;1.00
2611;DHT22;5612;51.134;17.058;2022-10-16T07:41:40;16.60;1.00
2611;DHT22;5612;51.134;17.058;2022-10-16T07:44:09;16.80;1.00
2611;DHT22;5612;51.134;17.058;2022-10-16T07:46:38;17.00;1.00
2611;DHT22;5612;51.134;17.058;2022-10-16T07:49:06;17.20;99.90
2611;DHT22;5612;51.134;17.058;2022-10-16T07:51:35;17.30;99.90
2611;DHT22;5612;51.134;17.058;2022-10-16T07:54:05;17.40;99.90
2611;DHT22;5612;51.134;17.058;2022-10-16T07:56:35;17.60;99.90
2611;DHT22;5612;51.134;17.058;2022-10-16T07:59:09;17.60;1.00
2611;DHT22;5612;51.134;17.058;2022-10-16T08:01:38;17.80;1.00
2611;DHT22;5612;51.134;17.058;2022-10-16T08:04:07;18.00;99.90
2611;DHT22;5612;51.134;17.058;2022-10-16T08:06:39;18.00;47.80
2611;DHT22;5612;51.134;17.058;2022-10-16T08:09:08;18.10;99.90
2611;DHT22;5612;51.134;17.058;2022-10-16T08:11:39;18.30;1.00
2611;DHT22;5612;51.134;17.058;2022-10-16T08:14:08;18.50;1.00
2611;DHT22;5612;51.134;17.058;2022-10-16T08:16:39;18.70;97.30
2611;DHT22;5612;51.134;17.058;2022-10-16T08:19:08;18.80;1.00
2611;DHT22;5612;51.134;17.058;2022-10-16T08:21:37;19.00;99.90
2611;DHT22;5612;51.134;17.058;2022-10-16T08:24:05;19.30;93.70
2611;DHT22;5612;51.134;17.058;2022-10-16T08:26:34;19.50;1.00
2611;DHT22;5612;51.134;17.058;2022-10-16T08:29:04;19.60;1.00
2611;DHT22;5612;51.134;17.058;2022-10-16T08:31:35;19.80;1.00
2611;DHT22;5612;51.134;17.058;2022-10-16T08:34:04;19.70;1.00
2611;DHT22;5612;51.134;17.058;2022-10-16T08:36:33;19.70;1.00
2611;DHT22;5612;51.134;17.058;2022-10-16T08:39:02;19.80;1.00
2611;DHT22;5612;51.134;17.058;2022-10-16T08:41:59;19.90;1.00
2611;DHT22;5612;51.134;17.058;2022-10-16T08:45:19;20.10;1.00
2611;DHT22;5612;51.134;17.058;2022-10-16T08:48:05;20.50;99.90
2611;DHT22;5612;51.134;17.058;2022-10-16T08:50:38;20.70;99.90
2611;DHT22;5612;51.134;17.058;2022-10-16T08:53:15;20.90;99.90
2611;DHT22;5612;51.134;17.058;2022-10-16T08:55:46;20.60;99.90
2611;DHT22;5612;51.134;17.058;2022-10-16T08:58:20;20.80;99.90
2611;DHT22;5612;51.134;17.058;2022-10-16T09:01:03;20.90;99.90
2611;DHT22;5612;51.134;17.058;2022-10-16T09:03:49;20.90;99.90
2611;DHT22;5612;51.134;17.058;2022-10-16T09:06:32;21.10;99.90
2611;DHT22;5612;51.134;17.058;2022-10-16T09:09:18;21.20;99.90
2611;DHT22;5612;51.134;17.058;2022-10-16T09:11:55;21.10;99.90
2611;DHT22;5612;51.134;17.058;2022-10-16T09:14:45;21.10;99.90
2611;DHT22;5612;51.134;17.058;2022-10-16T09:17:28;21.20;99.90
2611;DHT22;5612;51.134;17.058;2022-10-16T09:20:11;21.50;99.90
2611;DHT22;5612;51.134;17.058;2022-10-16T09:22:42;21.90;99.90
2611;DHT22;5612;51.134;17.058;2022-10-16T09:25:14;22.00;99.90
2611;DHT22;5612;51.134;17.058;2022-10-16T09:27:47;22.00;99.90
2611;DHT22;5612;51.134;17.058;2022-10-16T09:30:18;22.20;99.90
2611;DHT22;5612;51.134;17.058;2022-10-16T09:32:51;22.20;99.90
2611;DHT22;5612;51.134;17.058;2022-10-16T09:35:24;22.00;99.90
2611;DHT22;5612;51.134;17.058;2022-10-16T09:38:00;22.30;98.80
2611;DHT22;5612;51.134;17.058;2022-10-16T09:40:31;22.70;78.80
2611;DHT22;5612;51.134;17.058;2022-10-16T09:43:06;23.20;42.00
2611;DHT22;5612;51.134;17.058;2022-10-16T09:45:41;24.20;1.00
2611;DHT22;5612;51.134;17.058;2022-10-16T09:48:13;25.10;1.00
2611;DHT22;5612;51.134;17.058;2022-10-16T09:50:41;25.00;1.00
2611;DHT22;5612;51.134;17.058;2022-10-16T09:53:12;24.90;1.00
2611;DHT22;5612;51.134;17.058;2022-10-16T09:55:51;24.70;1.00
2611;DHT22;5612;51.134;17.058;2022-10-16T09:58:22;24.90;1.00
2611;DHT22;5612;51.134;17.058;2022-10-16T10:00:53;24.30;1.00
2611;DHT22;5612;51.134;17.058;2022-10-16T10:03:35;24.30;1.00
2611;DHT22;5612;51.134;17.058;2022-10-16T10:06:15;24.80;1.00
2611;DHT22;5612;51.134;17.058;2022-10-16T10:09:00;25.30;1.00
2611;DHT22;5612;51.134;17.058;2022-10-16T10:11:44;26.40;1.00
2611;DHT22;5612;51.134;17.058;2022-10-16T10:14:19;26.80;1.00
2611;DHT22;5612;51.134;17.058;2022-10-16T10:16:49;28.00;1.00
2611;DHT22;5612;51.134;17.058;2022-10-16T10:19:21;28.50;1.00
2611;DHT22;5612;51.134;17.058;2022-10-16T10:21:54;28.50;1.00
2611;DHT22;5612;51.134;17.058;2022-10-16T10:24:23;29.40;1.00
2611;DHT22;5612;51.134;17.058;2022-10-16T10:26:56;29.00;1.00
2611;DHT22;5612;51.134;17.058;2022-10-16T10:29:41;28.70;1.00
2611;DHT22;5612;51.134;17.058;2022-10-16T10:32:21;29.10;1.00
2611;DHT22;5612;51.134;17.058;2022-10-16T10:35:08;30.00;1.00
2611;DHT22;5612;51.134;17.058;2022-10-16T10:37:51;30.30;1.00
2611;DHT22;5612;51.134;17.058;2022-10-16T10:40:33;30.00;1.00
2611;DHT22;5612;51.134;17.058;2022-10-16T10:43:09;30.50;1.00
2611;DHT22;5612;51.134;17.058;2022-10-16T10:45:43;30.50;1.00
2611;DHT22;5612;51.134;17.058;2022-10-16T10:48:21;29.80;1.00
2611;DHT22;5612;51.134;17.058;2022-10-16T10:50:57;30.10;1.00
2611;DHT22;5612;51.134;17.058;2022-10-16T10:53:40;30.70;1.00
2611;DHT22;5612;51.134;17.058;2022-10-16T10:56:24;30.70;1.00
2611;DHT22;5612;51.134;17.058;2022-10-16T10:59:23;30.70;1.00
2611;DHT22;5612;51.134;17.058;2022-10-16T11:02:01;30.90;1.00
2611;DHT22;5612;51.134;17.058;2022-10-16T11:04:47;30.20;1.00
2611;DHT22;5612;51.134;17.058;2022-10-16T11:07:23;30.10;1.00
2611;DHT22;5612;51.134;17.058;2022-10-16T11:09:57;30.10;1.00
2611;DHT22;5612;51.134;17.058;2022-10-16T11:12:30;30.00;1.00
2611;DHT22;5612;51.134;17.058;2022-10-16T11:15:04;30.30;1.00
2611;DHT22;5612;51.134;17.058;2022-10-16T11:17:38;30.90;1.00
2611;DHT22;5612;51.134;17.058;2022-10-16T11:20:14;31.00;1.00
2611;DHT22;5612;51.134;17.058;2022-10-16T11:22:50;30.70;1.00
2611;DHT22;5612;51.134;17.058;2022-10-16T11:25:22;31.30;1.00
2611;DHT22;5612;51.134;17.058;2022-10-16T11:27:57;30.90;1.00
2611;DHT22;5612;51.134;17.058;2022-10-16T11:30:28;30.50;1.00
2611;DHT22;5612;51.134;17.058;2022-10-16T11:33:21;30.00;1.00
2611;DHT22;5612;51.134;17.058;2022-10-16T11:35:56;30.70;1.00
2611;DHT22;5612;51.134;17.058;2022-10-16T11:38:34;31.20;1.00
2611;DHT22;5612;51.134;17.058;2022-10-16T11:41:14;30.80;1.00
2611;DHT22;5612;51.134;17.058;2022-10-16T11:43:52;29.50;1.00
2611;DHT22;5612;51.134;17.058;2022-10-16T11:46:24;29.80;1.00
2611;DHT22;5612;51.134;17.058;2022-10-16T11:49:00;29.70;1.00
2611;DHT22;5612;51.134;17.058;2022-10-16T11:51:36;29.00;1.00
2611;DHT22;5612;51.134;17.058;2022-10-16T11:54:17;28.30;1.00
2611;DHT22;5612;51.134;17.058;2022-10-16T11:56:51;27.60;1.00
2611;DHT22;5612;51.134;17.058;2022-10-16T11:59:24;27.50;1.00
2611;DHT22;5612;51.134;17.058;2022-10-16T12:02:19;27.40;1.00
2611;DHT22;5612;51.134;17.058;2022-10-16T12:04:55;26.80;1.00
2611;DHT22;5612;51.134;17.058;2022-10-16T12:07:32;26.50;1.00
2611;DHT22;5612;51.134;17.058;2022-10-16T12:10:20;26.50;1.00
2611;DHT22;5612;51.134;17.058;2022-10-16T12:12:54;26.20;1.00
2611;DHT22;5612;51.134;17.058;2022-10-16T12:15:25;26.20;1.00
2611;DHT22;5612;51.134;17.058;2022-10-16T12:18:21;26.00;1.00
2611;DHT22;5612;51.134;17.058;2022-10-16T12:20:55;25.70;1.00
2611;DHT22;5612;51.134;17.058;2022-10-16T12:23:28;25.60;1.00
2611;DHT22;5612;51.134;17.058;2022-10-16T12:25:59;25.30;1.00
2611;DHT22;5612;51.134;17.058;2022-10-16T12:28:31;24.90;1.00
2611;DHT22;5612;51.134;17.058;2022-10-16T12:31:02;24.60;1.00
2611;DHT22;5612;51.134;17.058;2022-10-16T12:33:34;24.30;1.00
2611;DHT22;5612;51.134;17.058;2022-10-16T12:36:07;24.10;1.00
2611;DHT22;5612;51.134;17.058;2022-10-16T12:38:48;23.50;1.00
2611;DHT22;5612;51.134;17.058;2022-10-16T12:41:27;23.00;1.00
2611;DHT22;5612;51.134;17.058;2022-10-16T12:43:57;22.80;1.00
2611;DHT22;5612;51.134;17.058;2022-10-16T12:46:38;22.50;1.00
2611;DHT22;5612;51.134;17.058;2022-10-16T12:49:31;22.40;26.30
2611;DHT22;5612;51.134;17.058;2022-10-16T12:52:00;22.30;34.70
2611;DHT22;5612;51.134;17.058;2022-10-16T12:54:30;22.70;27.30
2611;DHT22;5612;51.134;17.058;2022-10-16T12:57:12;23.70;1.00
2611;DHT22;5612;51.134;17.058;2022-10-16T12:59:51;24.00;1.00
2611;DHT22;5612;51.134;17.058;2022-10-16T13:02:44;24.20;1.00
2611;DHT22;5612;51.134;17.058;2022-10-16T13:05:25;23.80;1.00
2611;DHT22;5612;51.134;17.058;2022-10-16T13:08:04;23.70;1.00
2611;DHT22;5612;51.134;17.058;2022-10-16T13:10:41;23.80;1.00
2611;DHT22;5612;51.134;17.058;2022-10-16T13:13:32;23.80;1.00
2611;DHT22;5612;51.134;17.058;2022-10-16T13:16:15;23.70;1.00
2611;DHT22;5612;51.134;17.058;2022-10-16T13:18:54;23.70;1.00
2611;DHT22;5612;51.134;17.058;2022-10-16T13:21:34;23.70;1.00
2611;DHT22;5612;51.134;17.058;2022-10-16T13:24:13;23.70;1.00
2611;DHT22;5612;51.134;17.058;2022-10-16T13:26:52;23.60;1.00
2611;DHT22;5612;51.134;17.058;2022-10-16T13:29:24;23.70;1.00
2611;DHT22;5612;51.134;17.058;2022-10-16T13:31:58;23.80;1.00
2611;DHT22;5612;51.134;17.058;2022-10-16T13:34:28;23.80;1.00
2611;DHT22;5612;51.134;17.058;2022-10-16T13:36:57;23.70;1.00
2611;DHT22;5612;51.134;17.058;2022-10-16T13:39:27;23.70;1.00
2611;DHT22;5612;51.134;17.058;2022-10-16T13:42:03;23.60;1.00
2611;DHT22;5612;51.134;17.058;2022-10-16T13:44:40;23.70;1.00
2611;DHT22;5612;51.134;17.058;2022-10-16T13:47:16;23.80;1.00
2611;DHT22;5612;51.134;17.058;2022-10-16T13:49:46;23.80;1.00
2611;DHT22;5612;51.134;17.058;2022-10-16T13:52:17;24.70;1.00
2611;DHT22;5612;51.134;17.058;2022-10-16T13:54:47;25.60;1.00
2611;DHT22;5612;51.134;17.058;2022-10-16T13:57:17;26.10;1.00
2611;DHT22;5612;51.134;17.058;2022-10-16T13:59:55;26.40;1.00
2611;DHT22;5612;51.134;17.058;2022-10-16T14:02:26;26.60;1.00
2611;DHT22;5612;51.134;17.058;2022-10-16T14:04:57;26.20;1.00
2611;DHT22;5612;51.134;17.058;2022-10-16T14:07:28;25.80;1.00
2611;DHT22;5612;51.134;17.058;2022-10-16T14:10:00;26.00;1.00
2611;DHT22;5612;51.134;17.058;2022-10-16T14:12:30;26.10;1.00
2611;DHT22;5612;51.134;17.058;2022-10-16T14:15:01;26.00;1.00
2611;DHT22;5612;51.134;17.058;2022-10-16T14:17:32;26.30;1.00
2611;DHT22;5612;51.134;17.058;2022-10-16T14:20:06;26.30;1.00
2611;DHT22;5612;51.134;17.058;2022-10-16T14:22:43;26.60;1.00
2611;DHT22;5612;51.134;17.058;2022-10-16T14:25:23;26.70;1.00
2611;DHT22;5612;51.134;17.058;2022-10-16T14:27:59;26.40;1.00
2611;DHT22;5612;51.134;17.058;2022-10-16T14:30:32;25.80;1.00
2611;DHT22;5612;51.134;17.058;2022-10-16T14:33:02;25.00;1.00
2611;DHT22;5612;51.134;17.058;2022-10-16T14:35:33;24.50;1.00
2611;DHT22;5612;51.134;17.058;2022-10-16T14:38:03;24.10;1.00
2611;DHT22;5612;51.134;17.058;2022-10-16T14:40:35;23.90;1.00
2611;DHT22;5612;51.134;17.058;2022-10-16T14:43:05;23.70;1.00
2611;DHT22;5612;51.134;17.058;2022-10-16T14:45:35;23.50;1.00
2611;DHT22;5612;51.134;17.058;2022-10-16T14:48:12;23.30;1.00
2611;DHT22;5612;51.134;17.058;2022-10-16T14:50:46;23.20;1.00
2611;DHT22;5612;51.134;17.058;2022-10-16T14:53:15;23.40;1.00
2611;DHT22;5612;51.134;17.058;2022-10-16T14:55:44;23.90;1.00
2611;DHT22;5612;51.134;17.058;2022-10-16T14:58:15;24.10;1.00
2611;DHT22;5612;51.134;17.058;2022-10-16T15:00:46;24.10;1.00
2611;DHT22;5612;51.134;17.058;2022-10-16T15:03:15;24.00;1.00
2611;DHT22;5612;51.134;17.058;2022-10-16T15:05:44;23.90;1.00
2611;DHT22;5612;51.134;17.058;2022-10-16T15:08:13;23.90;1.00
2611;DHT22;5612;51.134;17.058;2022-10-16T15:10:43;23.60;1.00
2611;DHT22;5612;51.134;17.058;2022-10-16T15:13:13;23.50;1.00
2611;DHT22;5612;51.134;17.058;2022-10-16T15:15:43;23.20;1.00
2611;DHT22;5612;51.134;17.058;2022-10-16T15:18:14;22.80;8.00
2611;DHT22;5612;51.134;17.058;2022-10-16T15:20:48;22.60;31.10
2611;DHT22;5612;51.134;17.058;2022-10-16T15:23:19;22.60;46.10
2611;DHT22;5612;51.134;17.058;2022-10-16T15:25:50;22.40;55.10
2611;DHT22;5612;51.134;17.058;2022-10-16T15:28:20;22.50;87.20
2611;DHT22;5612;51.134;17.058;2022-10-16T15:30:50;22.50;99.90
2611;DHT22;5612;51.134;17.058;2022-10-16T15:33:23;22.50;77.40
2611;DHT22;5612;51.134;17.058;2022-10-16T15:35:54;22.50;87.00
2611;DHT22;5612;51.134;17.058;2022-10-16T15:38:25;22.30;99.90
2611;DHT22;5612;51.134;17.058;2022-10-16T15:40:56;22.00;99.90
2611;DHT22;5612;51.134;17.058;2022-10-16T15:43:25;22.10;99.90
2611;DHT22;5612;51.134;17.058;2022-10-16T15:46:00;22.00;99.90
2611;DHT22;5612;51.134;17.058;2022-10-16T15:48:32;21.90;99.90
2611;DHT22;5612;51.134;17.058;2022-10-16T15:51:05;21.80;99.90
2611;DHT22;5612;51.134;17.058;2022-10-16T15:53:34;21.90;99.90
2611;DHT22;5612;51.134;17.058;2022-10-16T15:56:04;21.80;99.90
2611;DHT22;5612;51.134;17.058;2022-10-16T15:58:33;21.80;99.90
2611;DHT22;5612;51.134;17.058;2022-10-16T16:01:03;21.70;99.90
2611;DHT22;5612;51.134;17.058;2022-10-16T16:03:35;21.50;99.90
2611;DHT22;5612;51.134;17.058;2022-10-16T16:06:05;21.50;99.90
2611;DHT22;5612;51.134;17.058;2022-10-16T16:08:35;21.40;99.90
2611;DHT22;5612;51.134;17.058;2022-10-16T16:11:06;21.30;99.90
2611;DHT22;5612;51.134;17.058;2022-10-16T16:13:36;21.30;99.90
2611;DHT22;5612;51.134;17.058;2022-10-16T16:16:07;21.20;99.90
2611;DHT22;5612;51.134;17.058;2022-10-16T16:18:38;21.10;99.90
2611;DHT22;5612;51.134;17.058;2022-10-16T16:21:07;21.00;99.90
2611;DHT22;5612;51.134;17.058;2022-10-16T16:23:38;21.00;99.90
2611;DHT22;5612;51.134;17.058;2022-10-16T16:26:10;20.90;99.90
2611;DHT22;5612;51.134;17.058;2022-10-16T16:28:41;20.80;99.90